Airport View

Enter AWOS ICAO identifier for current METAR.

ex. KFNL

KPWT 191915Z AUTO 33004KT 10SM SCT023 17/09 A3019 RMK AO2

19 Jun 2019 19:40

Frequency: 121.2

Phone: 360-674-2811

Other Area AWOS: KTIW - KSEA - KBFI - KSHN

TAF KPWT 191722Z 1918/2018 VRB03KT P6SM OVC015 FM192200 18012KT P6SM SCT020 OVC050 FM200600 18006KT P6SM OVC020 FM201200 VRB03KT P6SM BKN007 OVC015